createdAt,value
2023-04-12T00:00:01.920Z,4.40
2023-04-12T00:02:35.682Z,4.40
2023-04-12T00:05:04.594Z,4.20
2023-04-12T00:07:33.255Z,4.10
2023-04-12T00:10:01.671Z,4.30
2023-04-12T00:12:29.803Z,4.30
2023-04-12T00:14:57.935Z,4.30
2023-04-12T00:17:26.333Z,4.30
2023-04-12T00:19:55.935Z,4.20
2023-04-12T00:22:24.368Z,4.10
2023-04-12T00:24:52.427Z,4.10
2023-04-12T00:27:20.900Z,3.90
2023-04-12T00:29:48.992Z,3.90
2023-04-12T00:32:17.421Z,3.80
2023-04-12T00:34:45.597Z,3.70
2023-04-12T00:37:15.058Z,3.70
2023-04-12T00:39:43.161Z,3.70
2023-04-12T00:42:11.238Z,3.80
2023-04-12T00:44:39.773Z,3.80
2023-04-12T00:47:08.209Z,3.70
2023-04-12T00:49:36.701Z,3.60
2023-04-12T00:52:06.942Z,3.80
2023-04-12T00:54:37.036Z,3.90
2023-04-12T00:57:05.875Z,4.00
2023-04-12T00:59:34.408Z,3.90
2023-04-12T01:02:03.578Z,4.00
2023-04-12T01:04:32.120Z,3.90
2023-04-12T01:07:15.788Z,3.90
2023-04-12T01:09:54.846Z,3.80
2023-04-12T01:12:33.424Z,3.70
2023-04-12T01:15:08.456Z,3.60
2023-04-12T01:17:51.145Z,3.80
2023-04-12T01:20:24.986Z,3.80
2023-04-12T01:23:15.808Z,3.90
2023-04-12T01:26:00.633Z,3.90
2023-04-12T01:28:35.475Z,3.90
2023-04-12T01:31:04.516Z,3.80
2023-04-12T01:33:34.875Z,3.80
2023-04-12T01:36:10.401Z,3.80
2023-04-12T01:38:39.611Z,3.80
2023-04-12T01:41:09.599Z,3.70
2023-04-12T01:43:43.991Z,3.70
2023-04-12T01:46:13.004Z,3.50
2023-04-12T01:48:43.320Z,3.40
2023-04-12T01:51:19.899Z,3.40
2023-04-12T01:53:52.452Z,3.40
2023-04-12T01:56:23.370Z,3.40
2023-04-12T01:58:54.674Z,3.40
2023-04-12T02:01:24.406Z,3.30
2023-04-12T02:03:54.835Z,3.30
2023-04-12T02:06:24.099Z,3.50
2023-04-12T02:08:57.959Z,3.50
2023-04-12T02:11:26.197Z,3.60
2023-04-12T02:13:56.115Z,3.60
2023-04-12T02:16:25.447Z,3.60
2023-04-12T02:18:53.837Z,3.70
2023-04-12T02:21:22.392Z,3.90
2023-04-12T02:23:50.499Z,3.80
2023-04-12T02:26:18.980Z,3.70
2023-04-12T02:28:47.305Z,3.60
2023-04-12T02:31:17.169Z,3.70
2023-04-12T02:33:45.898Z,3.80
2023-04-12T02:36:14.201Z,3.70
2023-04-12T02:38:42.553Z,3.60
2023-04-12T02:41:10.745Z,3.80
2023-04-12T02:43:39.197Z,3.70
2023-04-12T02:46:08.347Z,3.60
2023-04-12T02:48:37.843Z,3.60
2023-04-12T02:51:06.678Z,3.70
2023-04-12T02:53:34.780Z,3.70
2023-04-12T02:56:06.631Z,3.70
2023-04-12T02:58:35.355Z,3.70
2023-04-12T03:01:07.510Z,3.70
2023-04-12T03:03:38.014Z,3.70
2023-04-12T03:06:06.896Z,3.70
2023-04-12T03:08:35.305Z,3.70
2023-04-12T03:11:03.371Z,3.90
2023-04-12T03:13:31.503Z,3.90
2023-04-12T03:16:01.030Z,3.90
2023-04-12T03:18:29.371Z,4.00
2023-04-12T03:20:59.219Z,4.00
2023-04-12T03:23:27.308Z,4.10
2023-04-12T03:25:56.297Z,4.10
2023-04-12T03:28:24.507Z,4.20
2023-04-12T03:30:52.949Z,4.20
2023-04-12T03:33:21.114Z,4.20
2023-04-12T03:35:49.395Z,4.40
2023-04-12T03:38:18.954Z,4.40
2023-04-12T03:40:47.022Z,4.40
2023-04-12T03:43:15.407Z,4.50
2023-04-12T03:45:44.468Z,4.40
2023-04-12T03:48:12.876Z,4.50
2023-04-12T03:50:44.892Z,4.40
2023-04-12T03:53:13.207Z,4.30
2023-04-12T03:55:43.664Z,4.30
2023-04-12T03:58:13.843Z,4.30
2023-04-12T04:00:42.303Z,4.30
2023-04-12T04:03:11.312Z,4.20
2023-04-12T04:05:39.517Z,4.30
2023-04-12T04:08:08.732Z,4.20
2023-04-12T04:10:37.048Z,4.20
2023-04-12T04:13:06.498Z,4.30
2023-04-12T04:15:34.965Z,4.30
2023-04-12T04:18:03.106Z,4.30
2023-04-12T04:20:31.964Z,4.30
2023-04-12T04:23:00.370Z,4.40
2023-04-12T04:25:30.335Z,4.40
2023-04-12T04:27:59.664Z,4.60
2023-04-12T04:30:29.224Z,4.60
2023-04-12T04:32:57.327Z,4.60
2023-04-12T04:35:25.504Z,4.80
2023-04-12T04:37:55.202Z,4.80
2023-04-12T04:40:24.792Z,4.80
2023-04-12T04:42:55.826Z,4.80
2023-04-12T04:45:26.587Z,4.90
2023-04-12T04:47:56.940Z,5.10
2023-04-12T04:50:26.588Z,5.10
2023-04-12T04:52:54.701Z,5.30
2023-04-12T04:55:25.012Z,5.40
2023-04-12T04:57:53.421Z,5.40
2023-04-12T05:00:22.141Z,5.40
2023-04-12T05:02:50.617Z,5.40
2023-04-12T05:05:23.428Z,5.30
2023-04-12T05:07:52.034Z,5.40
2023-04-12T05:10:20.237Z,5.40
2023-04-12T05:12:48.367Z,5.40
2023-04-12T05:15:16.448Z,5.50
2023-04-12T05:17:44.575Z,5.50
2023-04-12T05:20:12.752Z,5.50
2023-04-12T05:22:42.558Z,5.50
2023-04-12T05:25:11.687Z,5.60
2023-04-12T05:27:40.320Z,5.60
2023-04-12T05:30:10.410Z,5.70
2023-04-12T05:32:38.870Z,5.60
2023-04-12T05:35:07.321Z,5.70
2023-04-12T05:37:35.523Z,5.60
2023-04-12T05:40:07.295Z,5.70
2023-04-12T05:42:37.413Z,5.80
2023-04-12T05:45:06.306Z,5.90
2023-04-12T05:47:34.819Z,6.00
2023-04-12T05:50:04.657Z,6.10
2023-04-12T05:52:34.178Z,6.30
2023-04-12T05:55:02.299Z,6.60
2023-04-12T05:57:31.802Z,6.80
2023-04-12T06:00:00.193Z,7.00
2023-04-12T06:02:28.417Z,7.20
2023-04-12T06:04:56.981Z,7.20
2023-04-12T06:07:25.160Z,7.30
2023-04-12T06:09:53.636Z,7.60
2023-04-12T06:12:21.694Z,7.70
2023-04-12T06:14:51.502Z,7.50
2023-04-12T06:17:19.815Z,7.70
2023-04-12T06:19:48.299Z,7.60
2023-04-12T06:22:16.995Z,7.50
2023-04-12T06:24:45.491Z,7.80
2023-04-12T06:27:13.892Z,7.90
2023-04-12T06:29:42.274Z,8.40
2023-04-12T06:32:11.737Z,8.60
2023-04-12T06:34:39.807Z,8.30
2023-04-12T06:37:08.275Z,9.10
2023-04-12T06:39:37.263Z,8.80
2023-04-12T06:42:06.181Z,8.50
2023-04-12T06:44:34.389Z,9.00
2023-04-12T06:47:02.571Z,9.70
2023-04-12T06:49:32.303Z,9.10
2023-04-12T06:52:00.440Z,9.30
2023-04-12T06:54:28.862Z,9.30
2023-04-12T06:56:57.701Z,9.70
2023-04-12T06:59:26.199Z,9.70
2023-04-12T07:01:54.300Z,9.10
2023-04-12T07:04:22.552Z,9.30
2023-04-12T07:06:52.169Z,9.10
2023-04-12T07:09:20.599Z,8.80
2023-04-12T07:11:48.808Z,8.80
2023-04-12T07:14:17.049Z,8.70
2023-04-12T07:16:45.339Z,8.70
2023-04-12T07:19:13.777Z,8.80
2023-04-12T07:21:42.289Z,8.80
2023-04-12T07:24:11.750Z,9.00
2023-04-12T07:26:39.861Z,9.10
2023-04-12T07:29:08.564Z,9.00
2023-04-12T07:31:36.700Z,9.20
2023-04-12T07:34:04.851Z,9.40
2023-04-12T07:36:33.388Z,9.50
2023-04-12T07:39:01.846Z,9.40
2023-04-12T07:41:31.381Z,9.90
2023-04-12T07:43:59.523Z,9.70
2023-04-12T07:46:27.779Z,9.80
2023-04-12T07:48:56.734Z,9.80
2023-04-12T07:51:25.352Z,9.80
2023-04-12T07:53:53.836Z,9.90
2023-04-12T07:56:21.940Z,9.80
2023-04-12T07:58:51.430Z,9.70
2023-04-12T08:01:19.489Z,9.70
2023-04-12T08:03:48.825Z,9.70
2023-04-12T08:06:17.826Z,9.70
2023-04-12T08:08:46.122Z,9.50
2023-04-12T08:11:14.344Z,9.70
2023-04-12T08:13:42.444Z,9.70
2023-04-12T08:16:12.922Z,9.70
2023-04-12T08:18:41.132Z,9.90
2023-04-12T08:21:09.785Z,9.90
2023-04-12T08:23:38.258Z,10.00
2023-04-12T08:26:06.653Z,10.00
2023-04-12T08:28:34.794Z,9.90
2023-04-12T08:31:04.230Z,10.00
2023-04-12T08:33:33.713Z,9.90
2023-04-12T08:36:02.166Z,10.00
2023-04-12T08:38:44.133Z,10.00
2023-04-12T08:41:13.799Z,10.10
2023-04-12T08:43:46.266Z,10.40
2023-04-12T08:46:16.688Z,10.50
2023-04-12T08:48:48.596Z,10.80
2023-04-12T08:51:19.424Z,10.80
2023-04-12T08:53:47.525Z,10.70
2023-04-12T08:56:17.208Z,10.70
2023-04-12T08:58:49.363Z,10.70
2023-04-12T09:01:19.102Z,10.60
2023-04-12T09:03:49.007Z,11.10
2023-04-12T09:06:17.260Z,11.50
2023-04-12T09:08:55.863Z,11.20
2023-04-12T09:11:25.797Z,11.20
2023-04-12T09:13:55.203Z,11.10
2023-04-12T09:16:36.587Z,11.30
2023-04-12T09:19:06.461Z,11.20
2023-04-12T09:21:36.040Z,11.20
2023-04-12T09:24:12.298Z,11.10
2023-04-12T09:26:42.369Z,11.40
2023-04-12T09:29:25.799Z,11.50
2023-04-12T09:31:58.347Z,11.90
2023-04-12T09:34:28.156Z,12.20
2023-04-12T09:36:56.800Z,12.50
2023-04-12T09:39:33.286Z,12.30
2023-04-12T09:42:18.158Z,12.50
2023-04-12T09:44:58.641Z,12.40
2023-04-12T09:47:39.099Z,12.30
2023-04-12T09:50:10.318Z,12.20
2023-04-12T09:52:40.246Z,12.40
2023-04-12T09:55:11.260Z,12.30
2023-04-12T09:57:42.137Z,12.20
2023-04-12T10:00:14.315Z,12.30
2023-04-12T10:02:45.515Z,12.30
2023-04-12T10:05:19.717Z,12.50
2023-04-12T10:07:48.665Z,12.30
2023-04-12T10:10:19.346Z,12.30
2023-04-12T10:12:49.349Z,12.40
2023-04-12T10:15:18.587Z,12.30
2023-04-12T10:17:48.968Z,12.20
2023-04-12T10:20:20.066Z,12.20
2023-04-12T10:22:49.427Z,12.30
2023-04-12T10:25:19.217Z,12.20
2023-04-12T10:27:48.884Z,12.20
2023-04-12T10:30:22.508Z,12.20
2023-04-12T10:32:51.520Z,12.00
2023-04-12T10:35:21.078Z,12.20
2023-04-12T10:38:05.074Z,12.30
2023-04-12T10:40:34.575Z,12.20
2023-04-12T10:43:30.459Z,11.80
2023-04-12T10:46:04.263Z,11.60
2023-04-12T10:48:34.046Z,11.50
2023-04-12T10:51:25.385Z,11.50
2023-04-12T10:53:54.852Z,11.40
2023-04-12T10:56:39.920Z,11.10
2023-04-12T10:59:08.543Z,11.20
2023-04-12T11:01:39.283Z,11.10
2023-04-12T11:04:17.239Z,10.80
2023-04-12T11:06:58.544Z,10.70
2023-04-12T11:09:29.389Z,10.80
2023-04-12T11:11:59.476Z,10.60
2023-04-12T11:14:31.259Z,10.60
2023-04-12T11:17:22.955Z,10.70
2023-04-12T11:19:55.846Z,10.80
2023-04-12T11:22:27.418Z,10.50
2023-04-12T11:24:57.167Z,10.60
2023-04-12T11:27:26.886Z,10.60
2023-04-12T11:29:56.614Z,10.50
2023-04-12T11:32:26.768Z,10.40
2023-04-12T11:34:56.385Z,10.40
2023-04-12T11:37:27.976Z,10.30
2023-04-12T11:39:58.629Z,10.10
2023-04-12T11:42:29.343Z,10.00
2023-04-12T11:45:03.123Z,9.90
2023-04-12T11:47:33.616Z,9.90
2023-04-12T11:50:01.796Z,10.00
2023-04-12T11:52:32.707Z,9.80
2023-04-12T11:55:04.892Z,9.80
2023-04-12T11:57:33.761Z,9.70
2023-04-12T12:00:06.222Z,9.70
2023-04-12T12:02:45.896Z,9.70
2023-04-12T12:05:18.154Z,9.70
2023-04-12T12:07:48.268Z,9.70
2023-04-12T12:10:27.556Z,9.70
2023-04-12T12:13:05.704Z,9.70
2023-04-12T12:15:33.835Z,9.60
2023-04-12T12:18:03.338Z,9.70
2023-04-12T12:20:32.676Z,9.60
2023-04-12T12:23:02.214Z,9.50
2023-04-12T12:25:30.965Z,9.40
2023-04-12T12:27:59.543Z,9.30
2023-04-12T12:30:31.180Z,9.30
2023-04-12T12:32:59.558Z,9.30
2023-04-12T12:35:28.730Z,9.30
2023-04-12T12:37:58.976Z,9.20
2023-04-12T12:40:32.970Z,9.20
2023-04-12T12:43:01.573Z,9.20
2023-04-12T12:45:30.847Z,9.20
2023-04-12T12:48:02.317Z,9.20
2023-04-12T12:50:33.105Z,9.20
2023-04-12T12:53:02.236Z,9.20
2023-04-12T12:55:32.767Z,9.20
2023-04-12T12:58:08.137Z,9.20
2023-04-12T13:00:37.516Z,9.10
2023-04-12T13:03:06.221Z,9.20
2023-04-12T13:05:35.190Z,9.10
2023-04-12T13:08:03.675Z,9.10
2023-04-12T13:10:33.149Z,9.00
2023-04-12T13:13:01.895Z,9.10
2023-04-12T13:15:29.999Z,9.10
2023-04-12T13:17:58.164Z,9.20
2023-04-12T13:20:27.361Z,9.30
2023-04-12T13:22:55.910Z,9.20
2023-04-12T13:25:24.546Z,9.20
2023-04-12T13:27:54.087Z,9.20
2023-04-12T13:30:22.401Z,9.20
2023-04-12T13:32:50.620Z,9.30
2023-04-12T13:35:19.097Z,9.30
2023-04-12T13:37:47.199Z,9.20
2023-04-12T13:40:16.115Z,9.20
2023-04-12T13:42:44.285Z,9.20
2023-04-12T13:45:14.053Z,9.30
2023-04-12T13:47:42.189Z,9.30
2023-04-12T13:50:11.534Z,9.30
2023-04-12T13:52:40.642Z,9.30
2023-04-12T13:55:09.959Z,9.30
2023-04-12T13:57:38.067Z,9.30
2023-04-12T14:00:07.356Z,9.30
2023-04-12T14:02:37.208Z,9.40
2023-04-12T14:05:06.500Z,9.40
2023-04-12T14:07:34.646Z,9.40
2023-04-12T14:10:03.173Z,9.30
2023-04-12T14:12:31.267Z,9.30
2023-04-12T14:14:59.389Z,9.30
2023-04-12T14:17:32.358Z,9.30
2023-04-12T14:20:02.454Z,9.30
2023-04-12T14:22:30.584Z,9.40
2023-04-12T14:24:58.989Z,9.30
2023-04-12T14:27:27.259Z,9.40
2023-04-12T14:29:55.620Z,9.40
2023-04-12T14:32:23.808Z,9.30
2023-04-12T14:34:51.978Z,9.30
2023-04-12T14:37:21.840Z,9.30
2023-04-12T14:39:50.028Z,9.30
2023-04-12T14:42:18.142Z,9.40
2023-04-12T14:44:46.213Z,9.30
2023-04-12T14:47:14.421Z,9.40
2023-04-12T14:49:42.511Z,9.40
2023-04-12T14:52:10.557Z,9.40
2023-04-12T14:54:40.047Z,9.50
2023-04-12T14:57:08.442Z,9.60
2023-04-12T14:59:36.967Z,9.60
2023-04-12T15:02:05.189Z,9.70
2023-04-12T15:04:33.593Z,9.70
2023-04-12T15:07:01.758Z,9.90
2023-04-12T15:09:29.868Z,9.90
2023-04-12T15:12:01.846Z,10.00
2023-04-12T15:14:30.195Z,10.20
2023-04-12T15:16:58.801Z,10.40
2023-04-12T15:19:27.260Z,10.40
2023-04-12T15:21:56.106Z,10.50
2023-04-12T15:24:24.893Z,10.40
2023-04-12T15:26:53.623Z,10.30
2023-04-12T15:29:24.608Z,10.30
2023-04-12T15:31:52.879Z,10.30
2023-04-12T15:34:23.551Z,10.30
2023-04-12T15:36:52.107Z,10.30
2023-04-12T15:39:20.424Z,10.30
2023-04-12T15:41:48.520Z,10.30
2023-04-12T15:44:17.108Z,10.30
2023-04-12T15:46:53.312Z,10.20
2023-04-12T15:49:27.849Z,10.20
2023-04-12T15:51:57.178Z,10.20
2023-04-12T15:54:25.330Z,10.20
2023-04-12T15:56:53.464Z,10.20
2023-04-12T15:59:21.732Z,10.30
2023-04-12T16:01:51.694Z,10.20
2023-04-12T16:04:20.333Z,10.30
2023-04-12T16:06:48.462Z,10.30
2023-04-12T16:09:16.750Z,10.30
2023-04-12T16:11:46.812Z,10.20
2023-04-12T16:14:14.893Z,10.20
2023-04-12T16:16:43.590Z,10.20
2023-04-12T16:19:14.012Z,10.20
2023-04-12T16:21:44.505Z,10.20
2023-04-12T16:24:13.509Z,10.20
2023-04-12T16:26:42.045Z,10.30
2023-04-12T16:29:10.720Z,10.30
2023-04-12T16:31:38.988Z,10.20
2023-04-12T16:34:08.440Z,10.20
2023-04-12T16:36:38.634Z,10.20
2023-04-12T16:39:07.013Z,10.30
2023-04-12T16:41:35.415Z,10.30
2023-04-12T16:44:03.557Z,10.30
2023-04-12T16:46:32.089Z,10.30
2023-04-12T16:49:03.758Z,10.30
2023-04-12T16:51:36.775Z,10.30
2023-04-12T16:54:07.084Z,10.30
2023-04-12T16:56:35.209Z,10.30
2023-04-12T16:59:04.880Z,10.30
2023-04-12T17:01:32.961Z,10.30
2023-04-12T17:04:01.650Z,10.40
2023-04-12T17:06:33.994Z,10.30
2023-04-12T17:09:02.201Z,10.40
2023-04-12T17:11:31.973Z,10.40
2023-04-12T17:14:00.386Z,10.30
2023-04-12T17:16:29.173Z,10.30
2023-04-12T17:18:57.781Z,10.30
2023-04-12T17:21:26.840Z,10.30
2023-04-12T17:23:56.132Z,10.30
2023-04-12T17:26:26.914Z,10.20
2023-04-12T17:28:56.833Z,10.20
2023-04-12T17:31:27.295Z,10.20
2023-04-12T17:33:55.653Z,10.20
2023-04-12T17:36:24.128Z,10.20
2023-04-12T17:38:52.543Z,10.20
2023-04-12T17:41:21.793Z,10.20
2023-04-12T17:43:50.014Z,10.10
2023-04-12T17:46:19.512Z,10.10
2023-04-12T17:48:47.696Z,10.10
2023-04-12T17:51:16.193Z,10.10
2023-04-12T17:53:45.669Z,10.10
2023-04-12T17:56:14.185Z,10.20
2023-04-12T17:58:43.967Z,10.10
2023-04-12T18:01:12.099Z,10.00
2023-04-12T18:03:41.961Z,10.00
2023-04-12T18:06:10.223Z,9.90
2023-04-12T18:08:38.932Z,9.90
2023-04-12T18:11:08.067Z,9.90
2023-04-12T18:13:36.185Z,9.90
2023-04-12T18:16:04.308Z,9.90
2023-04-12T18:18:32.510Z,9.90
2023-04-12T18:21:04.657Z,9.90
2023-04-12T18:23:33.681Z,9.90
2023-04-12T18:26:01.849Z,9.90
2023-04-12T18:28:31.449Z,9.80
2023-04-12T18:31:00.265Z,9.80
2023-04-12T18:33:30.308Z,9.80
2023-04-12T18:35:58.784Z,9.80
2023-04-12T18:38:33.577Z,9.80
2023-04-12T18:41:02.144Z,9.80
2023-04-12T18:43:30.919Z,10.00
2023-04-12T18:45:59.626Z,10.10
2023-04-12T18:48:28.357Z,10.20
2023-04-12T18:50:57.789Z,10.20
2023-04-12T18:53:27.718Z,10.30
2023-04-12T18:55:55.874Z,10.10
2023-04-12T18:58:25.203Z,10.20
2023-04-12T19:00:56.280Z,10.20
2023-04-12T19:03:27.115Z,10.30
2023-04-12T19:05:56.773Z,10.00
2023-04-12T19:08:25.512Z,9.90
2023-04-12T19:10:54.971Z,9.80
2023-04-12T19:13:23.177Z,9.80
2023-04-12T19:15:53.798Z,9.90
2023-04-12T19:18:21.972Z,10.00
2023-04-12T19:20:51.194Z,9.80
2023-04-12T19:23:19.606Z,10.00
2023-04-12T19:25:48.369Z,10.20
2023-04-12T19:28:18.020Z,10.10
2023-04-12T19:30:46.812Z,10.00
2023-04-12T19:33:15.104Z,10.00
2023-04-12T19:35:43.400Z,10.20
2023-04-12T19:38:11.665Z,10.20
2023-04-12T19:40:40.062Z,10.20
2023-04-12T19:43:08.578Z,10.20
2023-04-12T19:45:38.669Z,10.20
2023-04-12T19:48:07.062Z,10.20
2023-04-12T19:50:36.248Z,10.20
2023-04-12T19:53:05.743Z,10.20
2023-04-12T19:55:34.154Z,10.30
2023-04-12T19:58:02.228Z,10.20
2023-04-12T20:00:30.634Z,10.20
2023-04-12T20:03:00.909Z,10.20
2023-04-12T20:05:29.262Z,10.10
2023-04-12T20:07:57.400Z,9.90
2023-04-12T20:10:25.552Z,9.80
2023-04-12T20:12:53.705Z,9.60
2023-04-12T20:15:22.639Z,9.60
2023-04-12T20:17:52.192Z,9.40
2023-04-12T20:20:22.070Z,9.30
2023-04-12T20:22:51.994Z,9.20
2023-04-12T20:25:21.279Z,9.10
2023-04-12T20:27:52.545Z,8.80
2023-04-12T20:30:22.695Z,8.80
2023-04-12T20:32:54.730Z,8.80
2023-04-12T20:35:24.642Z,8.90
2023-04-12T20:37:53.108Z,8.80
2023-04-12T20:40:23.342Z,8.90
2023-04-12T20:42:51.768Z,9.00
2023-04-12T20:45:21.685Z,8.90
2023-04-12T20:47:49.884Z,8.80
2023-04-12T20:50:18.771Z,8.80
2023-04-12T20:52:48.817Z,8.60
2023-04-12T20:55:17.349Z,8.70
2023-04-12T20:57:45.539Z,8.50
2023-04-12T21:00:18.076Z,8.50
2023-04-12T21:02:47.329Z,8.50
2023-04-12T21:05:16.926Z,8.40
2023-04-12T21:07:46.791Z,8.40
2023-04-12T21:10:16.859Z,8.30
2023-04-12T21:12:47.093Z,8.20
2023-04-12T21:15:17.994Z,8.20
2023-04-12T21:17:46.443Z,8.30
2023-04-12T21:20:16.155Z,8.30
2023-04-12T21:22:47.450Z,8.30
2023-04-12T21:25:17.617Z,8.20
2023-04-12T21:27:47.779Z,8.10
2023-04-12T21:30:16.353Z,8.20
2023-04-12T21:32:44.481Z,8.20
2023-04-12T21:35:13.061Z,8.20
2023-04-12T21:37:41.610Z,8.10
2023-04-12T21:40:10.453Z,8.00
2023-04-12T21:42:41.282Z,7.80
2023-04-12T21:45:10.563Z,7.80
2023-04-12T21:47:41.139Z,7.70
2023-04-12T21:50:10.677Z,7.70
2023-04-12T21:52:40.141Z,7.70
2023-04-12T21:55:08.829Z,7.70
2023-04-12T21:57:37.090Z,7.80
2023-04-12T22:00:09.709Z,7.90
2023-04-12T22:02:38.148Z,7.80
2023-04-12T22:05:06.829Z,7.70
2023-04-12T22:07:35.330Z,7.70
2023-04-12T22:10:03.716Z,7.70
2023-04-12T22:12:34.101Z,7.80
2023-04-12T22:15:02.201Z,7.70
2023-04-12T22:17:32.546Z,7.80
2023-04-12T22:20:01.209Z,7.80
2023-04-12T22:22:29.928Z,7.70
2023-04-12T22:24:58.375Z,7.70
2023-04-12T22:27:26.920Z,7.80
2023-04-12T22:29:55.263Z,7.70
2023-04-12T22:32:23.434Z,7.80
2023-04-12T22:35:01.562Z,7.80
2023-04-12T22:37:36.352Z,7.70
2023-04-12T22:40:11.782Z,7.80
2023-04-12T22:42:46.547Z,7.70
2023-04-12T22:45:15.887Z,7.60
2023-04-12T22:47:44.264Z,7.60
2023-04-12T22:50:15.135Z,7.60
2023-04-12T22:52:43.660Z,7.70
2023-04-12T22:55:14.233Z,7.60
2023-04-12T22:57:42.382Z,7.70
2023-04-12T23:00:15.788Z,7.50
2023-04-12T23:02:46.568Z,7.50
2023-04-12T23:05:16.442Z,7.40
2023-04-12T23:07:44.844Z,7.40
2023-04-12T23:10:13.574Z,7.40
2023-04-12T23:12:42.005Z,7.30
2023-04-12T23:15:11.550Z,7.30
2023-04-12T23:17:39.659Z,7.40
2023-04-12T23:20:13.531Z,7.30
2023-04-12T23:22:57.995Z,7.30
2023-04-12T23:25:29.437Z,7.30
2023-04-12T23:27:57.524Z,7.20
2023-04-12T23:30:29.940Z,7.20
2023-04-12T23:32:58.393Z,7.20
2023-04-12T23:35:26.731Z,7.10
2023-04-12T23:37:56.490Z,7.10
2023-04-12T23:40:26.027Z,7.10
2023-04-12T23:42:54.148Z,7.10
2023-04-12T23:45:22.466Z,7.10
2023-04-12T23:47:51.129Z,7.00
2023-04-12T23:50:19.374Z,7.00
2023-04-12T23:52:47.938Z,6.90
2023-04-12T23:55:18.436Z,6.80
2023-04-12T23:57:46.512Z,6.90
